Time;durP1;ratioP1;P1;durP2;ratioP2;P2;SDS_P1;SDS_P2;PMS_P1;PMS_P2;Temp;Humidity;BMP_temperature;BMP_pressure;BME280_temperature;BME280_humidity;BME280_pressure;Samples;Min_cycle;Max_cycle;Signal;HPM_P1;HPM_P2
2024/01/17 00:00:37;;;;;;;10.67;10.37;;;20.30;40.00;;;;;;5032054;28;20496;-65
2024/01/17 00:03:06;;;;;;;11.43;10.70;;;20.30;40.00;;;;;;5025624;28;20480;-65
2024/01/17 00:05:33;;;;;;;11.40;11.00;;;20.30;40.00;;;;;;5032046;28;20445;-65
2024/01/17 00:08:00;;;;;;;10.83;10.53;;;20.20;40.00;;;;;;5032049;28;20535;-65
2024/01/17 00:10:27;;;;;;;11.20;10.80;;;20.20;40.00;;;;;;5031989;28;20489;-65
2024/01/17 00:12:54;;;;;;;10.87;10.57;;;20.30;40.00;;;;;;5020437;28;20791;-65
2024/01/17 00:15:23;;;;;;;11.20;10.57;;;20.20;40.00;;;;;;5031878;28;20449;-65
2024/01/17 00:17:50;;;;;;;11.90;11.40;;;20.20;40.00;;;;;;5031831;28;20524;-65
2024/01/17 00:20:17;;;;;;;11.27;10.87;;;20.20;40.00;;;;;;5031904;28;20497;-66
2024/01/17 00:22:44;;;;;;;11.00;10.70;;;20.20;40.00;;;;;;5025521;28;20971;-66
2024/01/17 00:25:11;;;;;;;11.23;10.90;;;20.20;40.10;;;;;;5025494;28;20469;-66
2024/01/17 00:27:39;;;;;;;10.70;10.40;;;20.10;40.00;;;;;;5031601;28;20477;-66
2024/01/17 00:30:07;;;;;;;11.63;11.33;;;20.20;40.10;;;;;;5031836;28;20976;-66
2024/01/17 00:32:35;;;;;;;11.30;10.90;;;20.20;40.10;;;;;;5025698;28;20472;-66
2024/01/17 00:35:03;;;;;;;11.77;11.37;;;20.10;40.00;;;;;;5031621;28;20449;-66
2024/01/17 00:37:30;;;;;;;10.97;10.57;;;20.10;40.10;;;;;;5031548;28;20452;-65
2024/01/17 00:39:57;;;;;;;11.53;11.13;;;20.10;40.10;;;;;;5031483;28;20835;-65
2024/01/17 00:42:26;;;;;;;11.27;10.97;;;20.10;40.10;;;;;;5025958;28;20983;-66
2024/01/17 00:44:53;;;;;;;11.27;10.90;;;20.10;40.10;;;;;;5031454;28;20441;-66
2024/01/17 00:47:20;;;;;;;11.57;11.20;;;20.10;40.20;;;;;;5031278;28;20484;-66
2024/01/17 00:49:48;;;;;;;11.90;11.50;;;20.10;40.20;;;;;;5031463;28;20494;-66
2024/01/17 00:52:15;;;;;;;11.43;11.03;;;20.10;40.10;;;;;;5025879;28;20437;-66
2024/01/17 00:54:42;;;;;;;11.57;10.97;;;20.10;40.20;;;;;;5031480;28;20473;-66
2024/01/17 00:57:09;;;;;;;12.03;11.53;;;20.00;40.10;;;;;;5031566;28;20472;-66
2024/01/17 00:59:36;;;;;;;10.47;10.10;;;20.00;40.10;;;;;;5031198;28;20485;-66
2024/01/17 01:02:03;;;;;;;11.10;10.70;;;20.00;40.10;;;;;;5026243;28;20472;-66
2024/01/17 01:04:30;;;;;;;11.80;11.30;;;20.00;40.10;;;;;;5031267;28;20524;-66
2024/01/17 01:06:58;;;;;;;11.00;10.57;;;20.00;40.10;;;;;;5015393;28;20526;-66
2024/01/17 01:09:25;;;;;;;11.57;11.17;;;20.00;40.20;;;;;;5031213;28;20480;-66
2024/01/17 01:11:52;;;;;;;11.00;10.70;;;20.00;40.20;;;;;;5029782;28;20888;-66
2024/01/17 01:14:19;;;;;;;11.20;10.80;;;20.00;40.20;;;;;;5035202;28;20445;-66
2024/01/17 01:16:46;;;;;;;11.07;10.63;;;19.90;40.20;;;;;;5035168;28;20531;-66
2024/01/17 01:19:12;;;;;;;11.20;10.90;;;19.90;40.20;;;;;;5035021;28;20495;-66
2024/01/17 01:21:39;;;;;;;12.07;11.57;;;19.90;40.20;;;;;;5030141;28;20470;-66
2024/01/17 01:24:07;;;;;;;11.40;10.90;;;19.90;40.20;;;;;;5035120;28;20479;-66
2024/01/17 01:26:36;;;;;;;11.30;11.00;;;19.90;40.20;;;;;;5035041;28;20987;-66
2024/01/17 01:29:03;;;;;;;11.20;10.90;;;19.90;40.20;;;;;;5034863;28;20484;-66
2024/01/17 01:31:29;;;;;;;11.73;11.23;;;19.90;40.20;;;;;;5032914;28;20471;-66
2024/01/17 01:33:56;;;;;;;11.43;11.03;;;19.90;40.20;;;;;;5034829;28;20473;-66
2024/01/17 01:36:23;;;;;;;11.23;10.87;;;19.80;40.20;;;;;;5035068;28;20473;-65
2024/01/17 01:38:50;;;;;;;11.50;11.00;;;19.90;40.20;;;;;;5034645;28;20472;-66
2024/01/17 01:41:18;;;;;;;11.00;10.70;;;19.90;40.20;;;;;;5032872;28;20480;-66
2024/01/17 01:43:45;;;;;;;11.40;11.10;;;19.90;40.20;;;;;;5034749;28;20473;-66
2024/01/17 01:46:19;;;;;;;11.07;10.70;;;19.80;40.20;;;;;;5034733;28;20495;-66
2024/01/17 01:48:48;;;;;;;11.90;11.50;;;19.80;40.20;;;;;;5034435;28;20475;-66
2024/01/17 01:51:15;;;;;;;11.03;10.73;;;19.80;40.20;;;;;;5032879;28;20448;-65
2024/01/17 01:53:43;;;;;;;11.90;11.50;;;19.80;40.20;;;;;;5034556;28;20979;-65
2024/01/17 01:56:13;;;;;;;11.40;11.07;;;19.80;40.20;;;;;;5034831;28;20472;-66
2024/01/17 01:58:44;;;;;;;11.93;11.43;;;19.80;40.20;;;;;;5034517;28;20468;-66
2024/01/17 02:01:12;;;;;;;11.70;11.20;;;19.80;40.20;;;;;;5032983;28;20805;-65
2024/01/17 02:03:42;;;;;;;11.60;11.20;;;19.80;40.20;;;;;;5034478;28;20967;-66
2024/01/17 02:06:11;;;;;;;11.43;10.97;;;19.80;40.20;;;;;;5034473;28;20454;-66
2024/01/17 02:08:38;;;;;;;11.47;11.07;;;19.80;40.30;;;;;;5034072;28;21022;-66
2024/01/17 02:11:07;;;;;;;11.67;11.17;;;19.80;40.20;;;;;;5032923;28;20522;-66
2024/01/17 02:13:34;;;;;;;10.90;10.50;;;19.80;40.20;;;;;;5034313;28;20473;-66
2024/01/17 02:16:02;;;;;;;10.93;10.63;;;19.80;40.20;;;;;;5018228;28;20480;-66
2024/01/17 02:18:29;;;;;;;11.00;10.70;;;19.80;40.30;;;;;;5034136;28;20472;-66
2024/01/17 02:20:56;;;;;;;11.00;10.70;;;19.70;40.20;;;;;;5024658;28;20883;-66
2024/01/17 02:23:24;;;;;;;11.47;11.07;;;19.70;40.20;;;;;;5033122;28;20472;-66
2024/01/17 02:25:54;;;;;;;11.20;10.90;;;19.70;40.20;;;;;;5034210;28;20481;-66
2024/01/17 02:28:21;;;;;;;10.53;10.23;;;19.70;40.20;;;;;;5033867;28;20503;-66
2024/01/17 02:30:48;;;;;;;11.30;10.90;;;19.70;40.20;;;;;;5017373;28;20501;-67
2024/01/17 02:33:15;;;;;;;11.00;10.70;;;19.70;40.20;;;;;;5034047;28;20488;-66
2024/01/17 02:35:42;;;;;;;11.50;11.07;;;19.80;40.40;;;;;;5020396;28;20484;-66
2024/01/17 02:38:09;;;;;;;10.77;10.47;;;19.70;40.30;;;;;;5033716;28;20974;-66
2024/01/17 02:40:36;;;;;;;10.83;10.53;;;19.70;40.20;;;;;;5024831;28;20521;-66
2024/01/17 02:43:05;;;;;;;11.00;10.60;;;19.70;40.20;;;;;;5033652;28;20480;-66
2024/01/17 02:45:32;;;;;;;11.60;11.30;;;19.70;40.20;;;;;;5033606;28;20480;-66
2024/01/17 02:47:59;;;;;;;11.90;11.30;;;19.70;40.20;;;;;;5033311;28;20442;-66
2024/01/17 02:50:26;;;;;;;12.10;11.60;;;19.70;40.20;;;;;;5026204;28;20902;-66
2024/01/17 02:52:53;;;;;;;11.77;11.27;;;19.70;40.30;;;;;;5032532;28;20479;-66
2024/01/17 02:55:22;;;;;;;10.93;10.53;;;19.70;40.50;;;;;;5033500;28;20940;-66
2024/01/17 02:57:50;;;;;;;11.77;11.40;;;19.70;40.30;;;;;;5033260;28;21093;-66
2024/01/17 03:00:19;;;;;;;11.80;11.30;;;19.70;40.20;;;;;;5024118;28;20457;-66
2024/01/17 03:02:47;;;;;;;11.80;11.40;;;19.70;40.30;;;;;;5021255;28;20465;-66
2024/01/17 03:05:14;;;;;;;11.67;11.27;;;19.70;40.30;;;;;;5025463;28;20473;-65
2024/01/17 03:07:41;;;;;;;12.10;11.70;;;19.70;40.30;;;;;;5033030;28;20472;-66
2024/01/17 03:10:11;;;;;;;11.17;10.77;;;19.70;40.40;;;;;;5029754;28;20481;-66
2024/01/17 03:12:38;;;;;;;11.63;11.23;;;19.70;40.30;;;;;;5029871;28;20452;-66
2024/01/17 03:15:07;;;;;;;11.37;11.07;;;19.70;40.40;;;;;;5033127;28;20491;-67
2024/01/17 03:17:36;;;;;;;11.50;11.00;;;19.70;40.40;;;;;;5033059;28;20934;-66
2024/01/17 03:20:03;;;;;;;10.97;10.67;;;19.70;40.40;;;;;;5014560;28;20473;-66
2024/01/17 03:22:30;;;;;;;12.90;12.30;;;19.70;40.40;;;;;;5029249;28;20816;-66
2024/01/17 03:24:57;;;;;;;11.30;11.00;;;19.70;40.40;;;;;;5032815;28;20504;-66
2024/01/17 03:27:23;;;;;;;11.57;11.17;;;19.70;41.00;;;;;;5032752;28;20503;-66
2024/01/17 03:29:50;;;;;;;11.80;11.40;;;19.60;40.30;;;;;;5032540;28;20590;-65
2024/01/17 03:32:17;;;;;;;11.57;11.17;;;19.60;40.30;;;;;;5026359;28;20476;-66
2024/01/17 03:34:45;;;;;;;11.90;11.50;;;19.60;40.30;;;;;;5032292;28;20532;-66
2024/01/17 03:37:12;;;;;;;11.37;10.97;;;19.60;40.30;;;;;;5032759;28;20870;-66
2024/01/17 03:39:44;;;;;;;11.10;10.80;;;19.60;40.30;;;;;;5028353;28;20493;-66
2024/01/17 03:42:15;;;;;;;11.80;11.30;;;19.60;40.20;;;;;;5032809;28;20437;-66
2024/01/17 03:44:43;;;;;;;11.70;11.30;;;19.60;40.30;;;;;;5032475;28;20778;-66
2024/01/17 03:47:10;;;;;;;11.50;11.20;;;19.60;40.30;;;;;;5032526;28;20807;-66
2024/01/17 03:49:37;;;;;;;11.00;10.70;;;19.60;40.30;;;;;;5028498;28;20520;-66
2024/01/17 03:52:07;;;;;;;11.57;11.17;;;19.60;40.20;;;;;;5016360;28;20854;-66
2024/01/17 03:54:36;;;;;;;11.77;11.17;;;19.60;40.30;;;;;;5032352;28;20452;-66
2024/01/17 03:57:03;;;;;;;11.17;10.87;;;19.60;40.30;;;;;;5016057;28;20445;-66
2024/01/17 03:59:30;;;;;;;11.17;10.83;;;19.60;40.30;;;;;;5028602;28;20489;-66
2024/01/17 04:01:57;;;;;;;12.70;12.27;;;19.60;40.30;;;;;;5032286;28;20441;-65
2024/01/17 04:04:24;;;;;;;12.27;11.87;;;19.60;40.20;;;;;;5032206;28;20520;-66
2024/01/17 04:06:51;;;;;;;12.27;11.87;;;19.60;40.30;;;;;;5031944;28;20479;-66
2024/01/17 04:09:20;;;;;;;12.80;12.40;;;19.60;40.30;;;;;;5028618;28;20973;-66
2024/01/17 04:11:47;;;;;;;11.63;11.23;;;19.60;40.80;;;;;;5032069;28;20473;-66
2024/01/17 04:14:14;;;;;;;12.53;12.03;;;19.60;40.30;;;;;;5031865;28;20477;-66
2024/01/17 04:16:40;;;;;;;12.37;11.87;;;19.60;40.20;;;;;;5031721;28;20445;-66
2024/01/17 04:19:08;;;;;;;12.33;11.93;;;19.60;40.20;;;;;;5024503;28;20485;-66
2024/01/17 04:21:35;;;;;;;12.27;11.87;;;19.60;40.30;;;;;;5016262;28;20430;-65
2024/01/17 04:24:02;;;;;;;12.17;11.77;;;19.60;40.30;;;;;;5031603;28;20491;-66
2024/01/17 04:26:30;;;;;;;12.53;12.10;;;19.60;40.40;;;;;;5031747;28;20430;-66
2024/01/17 04:28:57;;;;;;;12.63;12.23;;;19.60;40.90;;;;;;5028495;28;21009;-66
2024/01/17 04:31:25;;;;;;;12.50;12.00;;;19.60;40.40;;;;;;5031740;28;20495;-66
2024/01/17 04:33:52;;;;;;;12.20;11.80;;;19.60;40.40;;;;;;5031670;28;20473;-66
2024/01/17 04:36:20;;;;;;;12.20;11.80;;;19.50;40.30;;;;;;5031761;28;20503;-66
2024/01/17 04:38:47;;;;;;;12.30;11.90;;;19.50;40.30;;;;;;5028798;28;20471;-66
2024/01/17 04:41:15;;;;;;;13.00;12.50;;;19.60;40.40;;;;;;5031842;28;20445;-65
2024/01/17 04:43:45;;;;;;;13.00;12.60;;;19.50;40.30;;;;;;5031418;28;20445;-66
2024/01/17 04:46:13;;;;;;;11.97;11.57;;;19.50;40.30;;;;;;5030876;28;20441;-65
2024/01/17 04:48:40;;;;;;;12.23;11.90;;;19.50;40.30;;;;;;5023316;28;20480;-66
2024/01/17 04:51:08;;;;;;;12.80;12.30;;;19.50;40.30;;;;;;5015706;28;20464;-65
2024/01/17 04:53:37;;;;;;;13.00;12.50;;;19.50;40.30;;;;;;5031455;28;20499;-66
2024/01/17 04:56:05;;;;;;;12.07;11.67;;;19.50;40.40;;;;;;5031259;28;20533;-66
2024/01/17 04:58:32;;;;;;;12.03;11.70;;;19.50;40.30;;;;;;5023723;28;20449;-66
2024/01/17 05:01:00;;;;;;;13.17;12.67;;;19.50;40.30;;;;;;5031383;28;20485;-65
2024/01/17 05:03:27;;;;;;;13.43;12.97;;;19.50;40.40;;;;;;5031509;28;20924;-65
2024/01/17 05:05:54;;;;;;;12.80;12.40;;;19.50;40.40;;;;;;5031307;28;20876;-65
2024/01/17 05:08:21;;;;;;;12.97;12.60;;;19.50;40.40;;;;;;5023738;28;20456;-66
2024/01/17 05:10:48;;;;;;;13.00;12.60;;;19.50;40.50;;;;;;5031154;28;20515;-66
2024/01/17 05:13:15;;;;;;;12.80;12.40;;;19.50;40.40;;;;;;5031266;28;20472;-66
2024/01/17 05:15:42;;;;;;;13.17;12.70;;;19.50;40.40;;;;;;5031391;28;20469;-66
2024/01/17 05:18:10;;;;;;;13.20;12.60;;;19.50;40.50;;;;;;5023891;28;20484;-66
2024/01/17 05:20:38;;;;;;;13.73;13.30;;;19.50;40.60;;;;;;5031075;28;20504;-66
2024/01/17 05:23:06;;;;;;;12.87;12.40;;;19.50;41.10;;;;;;5030932;28;20936;-66
2024/01/17 05:25:34;;;;;;;12.83;12.33;;;19.50;41.00;;;;;;5031280;28;20441;-66
2024/01/17 05:28:00;;;;;;;13.00;12.60;;;19.50;40.60;;;;;;5023978;28;20484;-66
2024/01/17 05:30:27;;;;;;;13.20;12.80;;;19.50;40.60;;;;;;5031001;28;20508;-66
2024/01/17 05:32:55;;;;;;;13.60;13.10;;;19.50;40.70;;;;;;5030922;28;20476;-66
2024/01/17 05:35:23;;;;;;;13.70;13.20;;;19.50;40.60;;;;;;5031082;28;20474;-66
2024/01/17 05:37:51;;;;;;;13.70;13.20;;;19.50;40.50;;;;;;5024124;28;20444;-66
2024/01/17 05:40:18;;;;;;;13.30;12.90;;;19.50;40.40;;;;;;5031010;28;20458;-66
2024/01/17 05:42:46;;;;;;;15.63;14.70;;;19.50;40.40;;;;;;5030757;28;20437;-66
2024/01/17 05:45:13;;;;;;;13.93;13.40;;;19.50;40.40;;;;;;5031034;28;20469;-66
2024/01/17 05:47:40;;;;;;;14.00;13.30;;;19.50;40.60;;;;;;5027005;28;20469;-66
2024/01/17 05:50:09;;;;;;;12.93;12.33;;;19.50;41.30;;;;;;5030545;28;20508;-65
2024/01/17 05:52:39;;;;;;;14.40;13.30;;;19.50;42.40;;;;;;5030841;28;20945;-66
2024/01/17 05:55:07;;;;;;;13.73;12.93;;;19.50;42.80;;;;;;5029656;28;20531;-66
2024/01/17 05:57:34;;;;;;;14.33;13.43;;;19.50;42.80;;;;;;5033793;28;20464;-66
2024/01/17 06:00:01;;;;;;;15.30;14.40;;;19.60;42.90;;;;;;5024363;28;20501;-66
2024/01/17 06:02:28;;;;;;;16.73;15.20;;;19.60;43.40;;;;;;5034305;28;20515;-66
2024/01/17 06:04:55;;;;;;;15.47;14.57;;;19.60;44.20;;;;;;5034539;28;20495;-66
2024/01/17 06:07:22;;;;;;;15.70;14.43;;;19.60;44.50;;;;;;5034570;28;20437;-66
2024/01/17 06:09:50;;;;;;;16.20;14.73;;;19.60;44.40;;;;;;5033592;28;20523;-66
2024/01/17 06:12:17;;;;;;;16.60;15.20;;;19.60;44.20;;;;;;5033461;28;20477;-66
2024/01/17 06:14:44;;;;;;;16.13;14.97;;;19.60;44.00;;;;;;5033946;28;20866;-67
2024/01/17 06:17:11;;;;;;;15.40;14.60;;;19.60;44.30;;;;;;5034048;28;20464;-66
2024/01/17 06:19:38;;;;;;;15.20;14.20;;;19.60;43.50;;;;;;5034140;28;20485;-66
2024/01/17 06:22:05;;;;;;;15.07;13.93;;;19.70;43.40;;;;;;5033878;28;20445;-66
2024/01/17 06:24:32;;;;;;;15.40;14.60;;;19.70;43.20;;;;;;5033883;28;20484;-66
2024/01/17 06:27:00;;;;;;;17.13;15.30;;;19.70;43.00;;;;;;5033766;28;20497;-66
2024/01/17 06:29:29;;;;;;;14.77;13.87;;;19.70;42.90;;;;;;5033612;28;20513;-66
2024/01/17 06:31:56;;;;;;;16.07;15.20;;;19.70;42.80;;;;;;5033718;28;20820;-66
2024/01/17 06:34:23;;;;;;;14.73;13.90;;;19.70;42.60;;;;;;5033658;28;20889;-66
2024/01/17 06:36:50;;;;;;;14.67;14.10;;;19.70;42.50;;;;;;5033442;28;20468;-66
2024/01/17 06:39:17;;;;;;;15.10;14.33;;;19.70;42.40;;;;;;5033498;28;20522;-66
2024/01/17 06:41:44;;;;;;;15.20;14.50;;;19.70;42.30;;;;;;5033546;28;20446;-66
2024/01/17 06:44:13;;;;;;;15.53;14.83;;;19.70;42.20;;;;;;5033488;28;20818;-66
2024/01/17 06:46:39;;;;;;;15.60;14.77;;;19.70;42.10;;;;;;5033639;28;20495;-66
2024/01/17 06:49:06;;;;;;;14.80;14.20;;;19.70;42.00;;;;;;5033289;28;20493;-66
2024/01/17 06:51:33;;;;;;;15.97;14.83;;;19.70;41.90;;;;;;5033126;28;20509;-66
2024/01/17 06:54:00;;;;;;;14.83;14.23;;;19.70;41.80;;;;;;5033144;28;20472;-66
2024/01/17 06:56:27;;;;;;;15.17;14.50;;;19.70;41.70;;;;;;5033270;28;20465;-66
2024/01/17 06:58:54;;;;;;;14.47;13.87;;;19.70;41.60;;;;;;5033086;28;20434;-66
2024/01/17 07:01:23;;;;;;;16.17;15.37;;;19.70;41.60;;;;;;5033082;28;20955;-66
2024/01/17 07:03:50;;;;;;;14.60;14.10;;;19.70;41.50;;;;;;5032948;28;20469;-66
2024/01/17 07:06:17;;;;;;;15.50;14.70;;;19.70;41.40;;;;;;5033040;28;20795;-66
2024/01/17 07:08:44;;;;;;;15.13;14.43;;;19.70;41.30;;;;;;5032596;28;20756;-66
2024/01/17 07:11:11;;;;;;;14.87;14.33;;;19.70;41.30;;;;;;5016550;28;20512;-66
2024/01/17 07:13:39;;;;;;;15.27;14.50;;;19.70;41.30;;;;;;5032971;28;20443;-66
2024/01/17 07:16:06;;;;;;;15.73;15.00;;;19.80;41.30;;;;;;5032893;28;20441;-66
2024/01/17 07:18:34;;;;;;;14.80;14.10;;;19.80;41.20;;;;;;5033003;28;20921;-66
2024/01/17 07:21:06;;;;;;;14.97;14.30;;;19.80;41.20;;;;;;5032588;28;20497;-66
2024/01/17 07:23:34;;;;;;;14.43;13.90;;;19.70;41.00;;;;;;5032651;28;20438;-66
2024/01/17 07:26:01;;;;;;;15.27;14.73;;;19.70;41.00;;;;;;5032650;28;20479;-66
2024/01/17 07:28:28;;;;;;;15.03;14.43;;;19.70;40.90;;;;;;5032848;28;20480;-66
2024/01/17 07:30:55;;;;;;;14.27;13.60;;;19.70;41.20;;;;;;5032270;28;20511;-66
2024/01/17 07:33:22;;;;;;;13.67;13.27;;;19.80;40.90;;;;;;5032614;28;20469;-67
2024/01/17 07:35:50;;;;;;;13.60;13.20;;;19.70;40.80;;;;;;5032408;28;20450;-66
2024/01/17 07:38:17;;;;;;;13.83;13.00;;;19.70;40.70;;;;;;5032440;28;20472;-66
2024/01/17 07:40:44;;;;;;;14.47;13.80;;;19.70;40.70;;;;;;5032229;28;20497;-66
2024/01/17 07:43:11;;;;;;;13.90;13.40;;;19.70;40.70;;;;;;5032153;28;20495;-66
2024/01/17 07:45:38;;;;;;;13.90;13.40;;;19.70;40.70;;;;;;5032283;28;20445;-66
2024/01/17 07:48:05;;;;;;;14.07;13.47;;;19.70;40.60;;;;;;5032375;28;20871;-66
2024/01/17 07:50:32;;;;;;;14.37;13.43;;;19.70;40.60;;;;;;5032051;28;20521;-66
2024/01/17 07:53:01;;;;;;;13.40;13.00;;;19.70;40.60;;;;;;5031971;28;20975;-66
2024/01/17 07:55:28;;;;;;;13.67;13.20;;;19.80;40.70;;;;;;5032123;28;20520;-66
2024/01/17 07:57:58;;;;;;;14.03;13.53;;;19.80;40.70;;;;;;5032088;28;20446;-66
2024/01/17 08:00:25;;;;;;;14.47;13.87;;;19.80;40.70;;;;;;5031964;28;20824;-66
2024/01/17 08:02:51;;;;;;;13.40;13.00;;;19.80;40.70;;;;;;5031829;28;20539;-66
2024/01/17 08:05:18;;;;;;;13.87;13.27;;;19.80;40.70;;;;;;5032007;28;20469;-66
2024/01/17 08:07:45;;;;;;;13.77;13.33;;;19.80;40.60;;;;;;5031862;28;20479;-66
2024/01/17 08:10:13;;;;;;;13.73;13.10;;;19.80;40.60;;;;;;5031497;28;20542;-66
2024/01/17 08:12:41;;;;;;;14.13;13.53;;;19.80;40.60;;;;;;5031885;28;20473;-66
2024/01/17 08:15:09;;;;;;;14.03;13.33;;;19.80;40.50;;;;;;5031746;28;20736;-66
2024/01/17 08:17:36;;;;;;;13.90;13.30;;;19.80;40.60;;;;;;5031759;28;20437;-66
2024/01/17 08:20:06;;;;;;;14.20;13.70;;;19.80;40.50;;;;;;5030740;28;20465;-66
2024/01/17 08:22:34;;;;;;;14.10;13.60;;;19.90;40.50;;;;;;5031760;28;20445;-66
2024/01/17 08:25:01;;;;;;;15.40;14.80;;;19.80;40.50;;;;;;5031693;28;20440;-66
2024/01/17 08:27:29;;;;;;;13.73;13.33;;;19.80;40.40;;;;;;5031648;28;21018;-66
2024/01/17 08:29:56;;;;;;;15.13;14.63;;;19.90;40.50;;;;;;5031331;28;20495;-66
2024/01/17 08:32:23;;;;;;;14.03;13.63;;;19.90;40.50;;;;;;5031526;28;20476;-66
2024/01/17 08:34:50;;;;;;;13.53;13.13;;;19.80;40.30;;;;;;5031361;28;20480;-66
2024/01/17 08:37:17;;;;;;;13.80;13.40;;;19.80;40.30;;;;;;5031521;28;20449;-66
2024/01/17 08:39:44;;;;;;;14.20;13.70;;;19.90;40.30;;;;;;5031511;28;20492;-66
2024/01/17 08:42:11;;;;;;;14.40;13.90;;;19.80;40.20;;;;;;5031167;28;20461;-66
2024/01/17 08:44:42;;;;;;;14.33;13.83;;;19.90;40.30;;;;;;5031503;28;20469;-66
2024/01/17 08:47:09;;;;;;;14.27;13.60;;;19.90;40.20;;;;;;5031340;28;21038;-66
2024/01/17 08:49:39;;;;;;;14.20;13.60;;;19.90;40.20;;;;;;5031515;28;20489;-66
2024/01/17 08:52:07;;;;;;;13.70;13.30;;;19.90;40.20;;;;;;5031239;28;20480;-66
2024/01/17 08:54:34;;;;;;;14.27;13.77;;;19.90;40.20;;;;;;5031356;28;20449;-66
2024/01/17 08:57:01;;;;;;;14.87;14.30;;;19.90;40.20;;;;;;5031463;28;20457;-66
2024/01/17 08:59:28;;;;;;;13.80;13.40;;;19.90;40.20;;;;;;5031282;28;20496;-66
2024/01/17 09:01:57;;;;;;;13.83;13.40;;;19.80;40.10;;;;;;5031185;28;20476;-66
2024/01/17 09:04:25;;;;;;;13.47;13.07;;;19.80;40.10;;;;;;5031472;28;20537;-66
2024/01/17 09:06:52;;;;;;;13.70;13.10;;;19.90;40.20;;;;;;5031073;28;20448;-66
2024/01/17 09:09:20;;;;;;;13.80;13.30;;;19.90;40.20;;;;;;5031096;28;20495;-66
2024/01/17 09:11:47;;;;;;;14.43;13.93;;;19.80;40.10;;;;;;5031119;28;20615;-66
2024/01/17 09:14:17;;;;;;;14.27;13.60;;;19.90;40.10;;;;;;5031019;28;20470;-66
2024/01/17 09:16:44;;;;;;;14.50;14.00;;;19.90;40.10;;;;;;5031220;28;20984;-66
2024/01/17 09:19:12;;;;;;;14.00;13.50;;;19.90;40.10;;;;;;5031019;28;21464;-66
2024/01/17 09:21:39;;;;;;;13.10;12.80;;;19.90;40.10;;;;;;5031112;28;20491;-66
2024/01/17 09:24:06;;;;;;;13.43;13.00;;;19.90;40.10;;;;;;5031050;28;20536;-66
2024/01/17 09:26:33;;;;;;;13.50;13.10;;;19.90;40.10;;;;;;5031087;28;20496;-66
2024/01/17 09:29:00;;;;;;;14.07;13.67;;;19.90;40.10;;;;;;5030975;28;20495;-66
2024/01/17 09:31:27;;;;;;;14.30;13.90;;;19.90;40.10;;;;;;5032381;28;20484;-66
2024/01/17 09:33:54;;;;;;;13.60;13.20;;;19.90;40.00;;;;;;5034710;28;20472;-66
2024/01/17 09:36:22;;;;;;;13.20;12.80;;;19.90;40.00;;;;;;5034863;28;20877;-66
2024/01/17 09:38:49;;;;;;;13.80;13.30;;;19.90;40.00;;;;;;5034666;28;20932;-66
2024/01/17 09:41:16;;;;;;;13.23;12.83;;;19.90;40.00;;;;;;5034622;28;20468;-66
2024/01/17 09:43:45;;;;;;;13.90;13.50;;;19.90;40.00;;;;;;5034742;28;20545;-66
2024/01/17 09:46:12;;;;;;;14.37;13.80;;;19.90;40.00;;;;;;5034676;28;20444;-66
2024/01/17 09:48:40;;;;;;;13.47;13.07;;;19.90;39.90;;;;;;5034565;28;20437;-66
2024/01/17 09:51:07;;;;;;;13.53;13.13;;;19.90;39.90;;;;;;5034236;28;20488;-66
2024/01/17 09:53:36;;;;;;;14.20;13.70;;;19.90;39.90;;;;;;5034569;28;20476;-66
2024/01/17 09:56:04;;;;;;;14.57;14.17;;;20.00;40.00;;;;;;5034356;28;20487;-66
2024/01/17 09:58:33;;;;;;;13.03;12.23;;;19.90;39.90;;;;;;5034581;28;20473;-66
2024/01/17 10:01:03;;;;;;;13.47;12.97;;;19.90;39.80;;;;;;5034195;28;20476;-67
2024/01/17 10:03:31;;;;;;;13.60;13.20;;;19.90;39.80;;;;;;5034341;28;20821;-66
2024/01/17 10:05:59;;;;;;;13.50;13.10;;;19.90;39.80;;;;;;5033975;28;20476;-66
2024/01/17 10:08:27;;;;;;;14.97;14.47;;;19.90;40.40;;;;;;5034362;28;20856;-66
2024/01/17 10:10:56;;;;;;;14.57;14.17;;;19.90;39.80;;;;;;5033963;28;20611;-66
2024/01/17 10:13:23;;;;;;;14.33;13.90;;;19.90;39.80;;;;;;5034126;28;20446;-66
2024/01/17 10:15:50;;;;;;;13.57;13.17;;;19.90;39.90;;;;;;5034207;28;20495;-66
2024/01/17 10:18:17;;;;;;;14.40;14.00;;;19.90;39.80;;;;;;5034101;28;20473;-66
2024/01/17 10:20:44;;;;;;;14.60;14.10;;;19.90;39.80;;;;;;5034025;28;20827;-66
2024/01/17 10:23:11;;;;;;;14.20;13.80;;;19.90;39.80;;;;;;5033852;28;20476;-66
2024/01/17 10:25:39;;;;;;;14.77;14.37;;;19.90;39.80;;;;;;5034103;28;20481;-66
2024/01/17 10:28:09;;;;;;;14.30;13.90;;;19.90;39.80;;;;;;5034082;28;20471;-66
2024/01/17 10:30:37;;;;;;;14.43;13.83;;;20.00;39.80;;;;;;5033621;28;20547;-66
2024/01/17 10:33:04;;;;;;;14.23;13.80;;;19.90;39.80;;;;;;5033700;28;20480;-66
2024/01/17 10:35:32;;;;;;;13.80;13.40;;;19.90;39.70;;;;;;5033767;28;20476;-66
2024/01/17 10:37:59;;;;;;;12.90;12.60;;;19.90;39.70;;;;;;5033866;28;20530;-66
2024/01/17 10:40:26;;;;;;;14.30;13.90;;;20.00;39.80;;;;;;5033599;28;20493;-66
2024/01/17 10:43:09;;;;;;;13.00;12.60;;;19.90;39.70;;;;;;5032670;28;20449;-66
2024/01/17 10:45:37;;;;;;;13.40;13.00;;;20.00;39.80;;;;;;5021929;28;20922;-66
2024/01/17 10:48:05;;;;;;;13.80;13.40;;;20.00;39.80;;;;;;5033476;28;20465;-66
2024/01/17 10:50:32;;;;;;;14.07;13.47;;;20.00;39.80;;;;;;5033245;28;20465;-66
2024/01/17 10:53:04;;;;;;;14.07;13.67;;;20.00;39.80;;;;;;5033330;28;20808;-66
2024/01/17 10:55:34;;;;;;;13.90;13.50;;;20.00;39.80;;;;;;5033569;28;20447;-66
2024/01/17 10:58:10;;;;;;;13.60;13.20;;;20.00;39.80;;;;;;5033338;28;20452;-66
2024/01/17 11:00:41;;;;;;;13.63;13.23;;;20.00;39.70;;;;;;5033221;28;20465;-66
2024/01/17 11:03:10;;;;;;;14.10;13.70;;;20.00;39.70;;;;;;5033121;28;20480;-66
2024/01/17 11:05:46;;;;;;;13.50;13.10;;;20.00;39.70;;;;;;5033186;28;20441;-66
2024/01/17 11:08:15;;;;;;;13.90;13.40;;;20.00;39.70;;;;;;5033158;28;20463;-66
2024/01/17 11:10:44;;;;;;;14.37;13.93;;;20.00;39.70;;;;;;5032930;28;20515;-66
2024/01/17 11:13:15;;;;;;;14.60;14.10;;;20.00;39.70;;;;;;5032876;28;20483;-66
2024/01/17 11:15:43;;;;;;;13.80;13.30;;;20.00;39.70;;;;;;5033013;28;20461;-66
2024/01/17 11:18:11;;;;;;;14.73;14.20;;;20.00;39.70;;;;;;5032838;28;20982;-66
2024/01/17 11:20:40;;;;;;;14.27;13.87;;;19.90;39.60;;;;;;5032671;28;20461;-67
2024/01/17 11:23:08;;;;;;;15.30;14.73;;;20.00;39.70;;;;;;5032816;28;20445;-66
2024/01/17 11:25:40;;;;;;;14.70;14.30;;;19.90;39.60;;;;;;5032900;28;20451;-66
2024/01/17 11:28:17;;;;;;;14.20;13.80;;;19.90;39.50;;;;;;5032938;28;20473;-66
2024/01/17 11:30:59;;;;;;;14.83;14.43;;;20.00;39.60;;;;;;5032426;28;20468;-66
2024/01/17 11:33:27;;;;;;;14.00;13.60;;;20.00;39.60;;;;;;5017494;28;20461;-66
2024/01/17 11:35:54;;;;;;;14.63;14.23;;;20.00;39.60;;;;;;5032869;28;20923;-66
2024/01/17 11:38:34;;;;;;;14.17;13.77;;;20.00;39.60;;;;;;5032527;28;20476;-66
2024/01/17 11:41:06;;;;;;;14.33;13.83;;;20.00;39.60;;;;;;5032475;28;20476;-66
2024/01/17 11:43:38;;;;;;;13.80;13.40;;;19.90;39.50;;;;;;5032510;28;20433;-66
2024/01/17 11:46:06;;;;;;;13.83;13.43;;;20.00;39.60;;;;;;5032384;28;20516;-66
2024/01/17 11:48:35;;;;;;;13.90;13.50;;;20.00;39.60;;;;;;5032478;28;20445;-66
2024/01/17 11:51:14;;;;;;;14.37;13.97;;;20.00;39.60;;;;;;5031957;28;20457;-66
2024/01/17 11:53:42;;;;;;;13.70;13.30;;;20.00;39.60;;;;;;5031914;28;20449;-66
2024/01/17 11:56:12;;;;;;;14.00;13.60;;;20.00;39.60;;;;;;5031997;28;20446;-66
2024/01/17 11:58:41;;;;;;;13.43;13.03;;;20.00;39.50;;;;;;5032170;28;20480;-66
2024/01/17 12:01:10;;;;;;;14.10;13.50;;;20.00;39.50;;;;;;5031969;28;20445;-66
2024/01/17 12:03:37;;;;;;;13.83;13.43;;;20.00;39.50;;;;;;5032214;28;20957;-66
2024/01/17 12:06:04;;;;;;;13.97;13.57;;;20.00;39.50;;;;;;5031890;28;20481;-66
2024/01/17 12:08:31;;;;;;;13.50;13.07;;;20.00;39.60;;;;;;5032027;28;20469;-66
2024/01/17 12:10:58;;;;;;;13.90;13.50;;;20.00;39.50;;;;;;5031679;28;20509;-66
2024/01/17 12:13:26;;;;;;;13.77;13.30;;;20.00;39.50;;;;;;5031979;28;20824;-66
2024/01/17 12:15:55;;;;;;;14.47;14.07;;;20.00;39.50;;;;;;5031928;28;20433;-66
2024/01/17 12:18:23;;;;;;;13.87;13.47;;;20.00;39.50;;;;;;5031682;28;20460;-67
2024/01/17 12:20:51;;;;;;;13.43;13.10;;;20.00;39.50;;;;;;5031891;28;20555;-66
2024/01/17 12:23:19;;;;;;;13.77;13.37;;;20.00;39.50;;;;;;5031590;28;20476;-66
2024/01/17 12:25:47;;;;;;;13.60;13.20;;;20.00;40.10;;;;;;5031703;28;20441;-66
2024/01/17 12:28:20;;;;;;;14.00;13.60;;;20.00;39.50;;;;;;5031575;28;20945;-66
2024/01/17 12:31:00;;;;;;;13.70;13.30;;;20.00;39.50;;;;;;5031685;28;20887;-66